Terminal Aerodrome Forecast
Issued by NWS Wilmington, OH

Current Version | Previous Version | Graphics & Text | Print | Product List | Glossary On
Versions: 1 2 3 4 5 6 7 8 9 10 11 12 13 14 15 16 17 18 19 20 21 22 23 24 25 26 27 28 29 30 31
000
FTUS41 KILN 251700
TAFCVG
TAF
KCVG 251734Z 2518/2624 28005KT P6SM SCT050 BKN250
     FM260200 20004KT P6SM BKN100
     FM260600 20004KT P6SM VCSH BKN080
     FM261300 22009KT P6SM VCTS BKN050CB BKN100=

USA.gov is the U.S. government's official web portal to all federal, state and local government web resources and services.